Harlan, Indiana
Current Conditions -  °F | °C
As of 1:55 AM on Tuesday 21 Oct 2014 (Local Time) from KGWB Reporting Station
Clear Clear  
Wind Chill: 42°   Ceiling: Unl
Heat Index: 46°   Visibility: 10mi
Dew Point: 41°   Wind: 8mph
Humidity: 81%   Direction: 310°NW
Pressure: 29.93"   Gusts: NA
Location:  41.2°N, 84.92°W
Report Text: KGWB 210555Z AUTO 31007KT 10SM CLR 08/05 A2993 RMK AO2
Loading
Personal Weather Stations






























Interactive Weather Map
Tropical Storm Tracking
New forecast layout! Learn more

10-Day Weather Forecast

Advertisements
Track Severe Weather on mobile